Terminal Aerodrome Forecast
Issued by NWS

Home | Current Version | Previous Version | Text Only | Print | Product List | Glossary On
Versions: 1 2 3 4 5 6 7 8 9 10 11 12 13 14 15 16
783
FTUS46 KPDT 161729
TAFDLS
TAF
KDLS 161729Z 1618/1718 30007KT P6SM SCT040 BKN120
     FM170600 30003KT P6SM SCT050 BKN150
     FM171200 VRB03KT 5SM BR BKN050 OVC100=

USA.gov is the U.S. government's official web portal to all federal, state and local government web resources and services.